sensor_id;sensor_type;location;lat;lon;timestamp;P1;durP1;ratioP1;P2;durP2;ratioP2
73733;SDS011;62039;50.000;9.064;2022-07-05T08:22:20;1.63;;;0.83;;
73733;SDS011;62039;50.000;9.064;2022-07-05T08:24:47;2.40;;;1.00;;
73733;SDS011;62039;50.000;9.064;2022-07-05T08:27:16;1.30;;;0.80;;
73733;SDS011;62039;50.000;9.064;2022-07-05T08:29:43;1.10;;;0.80;;
73733;SDS011;62039;50.000;9.064;2022-07-05T08:32:10;2.40;;;1.17;;
73733;SDS011;62039;50.000;9.064;2022-07-05T08:34:37;1.33;;;0.60;;
73733;SDS011;62039;50.000;9.064;2022-07-05T08:37:03;0.70;;;0.60;;
73733;SDS011;62039;50.000;9.064;2022-07-05T08:39:36;0.60;;;0.60;;
73733;SDS011;62039;50.000;9.064;2022-07-05T08:42:03;1.97;;;0.70;;
73733;SDS011;62039;50.000;9.064;2022-07-05T08:44:35;0.70;;;0.70;;
73733;SDS011;62039;50.000;9.064;2022-07-05T08:47:04;0.80;;;0.60;;
73733;SDS011;62039;50.000;9.064;2022-07-05T08:49:35;1.87;;;0.70;;
73733;SDS011;62039;50.000;9.064;2022-07-05T08:52:04;1.23;;;0.50;;
73733;SDS011;62039;50.000;9.064;2022-07-05T08:54:35;1.63;;;0.67;;
73733;SDS011;62039;50.000;9.064;2022-07-05T08:57:02;0.63;;;0.63;;
73733;SDS011;62039;50.000;9.064;2022-07-05T08:59:40;0.73;;;0.67;;
73733;SDS011;62039;50.000;9.064;2022-07-05T09:02:08;1.10;;;0.93;;
73733;SDS011;62039;50.000;9.064;2022-07-05T09:04:37;0.97;;;0.70;;
73733;SDS011;62039;50.000;9.064;2022-07-05T09:07:09;0.90;;;0.70;;
73733;SDS011;62039;50.000;9.064;2022-07-05T09:09:38;0.80;;;0.60;;
73733;SDS011;62039;50.000;9.064;2022-07-05T09:12:06;1.63;;;0.70;;
73733;SDS011;62039;50.000;9.064;2022-07-05T09:14:53;1.23;;;0.70;;
73733;SDS011;62039;50.000;9.064;2022-07-05T09:17:21;1.07;;;0.60;;
73733;SDS011;62039;50.000;9.064;2022-07-05T09:20:04;0.90;;;0.80;;
73733;SDS011;62039;50.000;9.064;2022-07-05T09:22:40;1.50;;;0.77;;
73733;SDS011;62039;50.000;9.064;2022-07-05T09:25:12;0.93;;;0.70;;
73733;SDS011;62039;50.000;9.064;2022-07-05T09:27:50;0.80;;;0.80;;
73733;SDS011;62039;50.000;9.064;2022-07-05T09:30:24;1.17;;;0.67;;
73733;SDS011;62039;50.000;9.064;2022-07-05T09:35:43;2.03;;;0.70;;
73733;SDS011;62039;50.000;9.064;2022-07-05T09:38:25;1.73;;;0.80;;
73733;SDS011;62039;50.000;9.064;2022-07-05T09:40:53;1.40;;;0.70;;
73733;SDS011;62039;50.000;9.064;2022-07-05T09:43:21;0.63;;;0.47;;
73733;SDS011;62039;50.000;9.064;2022-07-05T09:45:51;0.93;;;0.60;;
73733;SDS011;62039;50.000;9.064;2022-07-05T09:48:19;0.80;;;0.57;;
73733;SDS011;62039;50.000;9.064;2022-07-05T09:51:03;1.40;;;0.90;;
73733;SDS011;62039;50.000;9.064;2022-07-05T09:53:52;0.93;;;0.60;;
73733;SDS011;62039;50.000;9.064;2022-07-05T09:56:26;2.07;;;0.70;;
73733;SDS011;62039;50.000;9.064;2022-07-05T09:58:52;1.33;;;0.75;;
73733;SDS011;62039;50.000;9.064;2022-07-05T10:01:24;0.60;;;0.60;;
73733;SDS011;62039;50.000;9.064;2022-07-05T10:03:52;0.63;;;0.60;;
73733;SDS011;62039;50.000;9.064;2022-07-05T10:06:19;0.60;;;0.60;;
73733;SDS011;62039;50.000;9.064;2022-07-05T10:08:46;1.13;;;0.50;;
73733;SDS011;62039;50.000;9.064;2022-07-05T10:11:14;0.80;;;0.60;;
73733;SDS011;62039;50.000;9.064;2022-07-05T10:13:42;1.17;;;0.80;;
73733;SDS011;62039;50.000;9.064;2022-07-05T10:16:10;1.00;;;0.60;;
73733;SDS011;62039;50.000;9.064;2022-07-05T10:18:38;0.50;;;0.50;;
73733;SDS011;62039;50.000;9.064;2022-07-05T10:21:06;0.80;;;0.50;;
73733;SDS011;62039;50.000;9.064;2022-07-05T10:23:38;0.80;;;0.60;;
73733;SDS011;62039;50.000;9.064;2022-07-05T10:26:08;0.70;;;0.60;;
73733;SDS011;62039;50.000;9.064;2022-07-05T10:28:37;1.02;;;0.60;;
73733;SDS011;62039;50.000;9.064;2022-07-05T10:31:05;0.95;;;0.70;;
73733;SDS011;62039;50.000;9.064;2022-07-05T10:33:32;2.67;;;0.70;;
73733;SDS011;62039;50.000;9.064;2022-07-05T10:36:00;3.03;;;0.80;;
73733;SDS011;62039;50.000;9.064;2022-07-05T10:38:28;1.23;;;0.77;;
73733;SDS011;62039;50.000;9.064;2022-07-05T10:40:56;2.13;;;0.80;;
73733;SDS011;62039;50.000;9.064;2022-07-05T10:43:26;0.68;;;0.50;;
73733;SDS011;62039;50.000;9.064;2022-07-05T10:45:54;1.08;;;0.60;;
73733;SDS011;62039;50.000;9.064;2022-07-05T10:48:21;0.80;;;0.65;;
73733;SDS011;62039;50.000;9.064;2022-07-05T10:50:49;1.40;;;0.60;;
73733;SDS011;62039;50.000;9.064;2022-07-05T10:53:19;0.68;;;0.47;;
73733;SDS011;62039;50.000;9.064;2022-07-05T10:55:47;1.10;;;0.80;;
73733;SDS011;62039;50.000;9.064;2022-07-05T10:58:19;3.78;;;0.63;;
73733;SDS011;62039;50.000;9.064;2022-07-05T11:04:23;0.80;;;0.65;;
73733;SDS011;62039;50.000;9.064;2022-07-05T11:06:51;1.20;;;0.70;;
73733;SDS011;62039;50.000;9.064;2022-07-05T11:09:20;1.33;;;0.70;;
73733;SDS011;62039;50.000;9.064;2022-07-05T11:12:00;1.20;;;0.65;;
73733;SDS011;62039;50.000;9.064;2022-07-05T11:14:49;0.55;;;0.55;;
73733;SDS011;62039;50.000;9.064;2022-07-05T11:17:19;0.80;;;0.80;;
73733;SDS011;62039;50.000;9.064;2022-07-05T11:20:10;0.98;;;0.70;;
73733;SDS011;62039;50.000;9.064;2022-07-05T11:22:40;0.63;;;0.60;;
73733;SDS011;62039;50.000;9.064;2022-07-05T11:25:27;1.80;;;0.70;;
73733;SDS011;62039;50.000;9.064;2022-07-05T11:28:04;1.20;;;0.65;;
73733;SDS011;62039;50.000;9.064;2022-07-05T11:30:46;1.00;;;0.75;;
73733;SDS011;62039;50.000;9.064;2022-07-05T11:33:29;1.20;;;0.70;;
73733;SDS011;62039;50.000;9.064;2022-07-05T11:35:58;1.42;;;0.82;;
73733;SDS011;62039;50.000;9.064;2022-07-05T11:38:25;0.80;;;0.60;;
73733;SDS011;62039;50.000;9.064;2022-07-05T11:41:14;1.13;;;0.80;;
73733;SDS011;62039;50.000;9.064;2022-07-05T11:43:41;0.57;;;0.52;;
73733;SDS011;62039;50.000;9.064;2022-07-05T11:46:08;0.60;;;0.60;;
73733;SDS011;62039;50.000;9.064;2022-07-05T11:48:55;1.42;;;0.82;;
73733;SDS011;62039;50.000;9.064;2022-07-05T11:51:22;0.77;;;0.68;;
73733;SDS011;62039;50.000;9.064;2022-07-05T11:53:48;0.98;;;0.60;;
73733;SDS011;62039;50.000;9.064;2022-07-05T11:56:36;0.82;;;0.70;;
73733;SDS011;62039;50.000;9.064;2022-07-05T11:59:16;0.77;;;0.50;;
73733;SDS011;62039;50.000;9.064;2022-07-05T12:01:43;0.75;;;0.60;;
73733;SDS011;62039;50.000;9.064;2022-07-05T12:04:10;1.15;;;0.70;;
73733;SDS011;62039;50.000;9.064;2022-07-05T12:06:40;0.90;;;0.50;;
73733;SDS011;62039;50.000;9.064;2022-07-05T12:09:07;0.55;;;0.50;;
73733;SDS011;62039;50.000;9.064;2022-07-05T12:11:34;0.93;;;0.60;;
73733;SDS011;62039;50.000;9.064;2022-07-05T12:14:02;0.68;;;0.50;;
73733;SDS011;62039;50.000;9.064;2022-07-05T12:16:31;1.13;;;0.60;;
73733;SDS011;62039;50.000;9.064;2022-07-05T12:18:58;0.73;;;0.60;;
73733;SDS011;62039;50.000;9.064;2022-07-05T12:21:25;1.20;;;0.70;;
73733;SDS011;62039;50.000;9.064;2022-07-05T12:23:51;0.98;;;0.70;;
73733;SDS011;62039;50.000;9.064;2022-07-05T12:26:19;1.45;;;0.60;;
73733;SDS011;62039;50.000;9.064;2022-07-05T12:28:46;1.52;;;0.75;;
73733;SDS011;62039;50.000;9.064;2022-07-05T12:31:18;0.98;;;0.63;;
73733;SDS011;62039;50.000;9.064;2022-07-05T12:33:46;0.70;;;0.55;;
73733;SDS011;62039;50.000;9.064;2022-07-05T12:36:13;1.00;;;0.75;;
73733;SDS011;62039;50.000;9.064;2022-07-05T12:38:41;1.58;;;0.68;;
73733;SDS011;62039;50.000;9.064;2022-07-05T12:41:07;1.85;;;0.75;;
73733;SDS011;62039;50.000;9.064;2022-07-05T12:43:47;1.33;;;0.70;;
73733;SDS011;62039;50.000;9.064;2022-07-05T12:46:15;1.55;;;0.60;;
73733;SDS011;62039;50.000;9.064;2022-07-05T12:48:43;1.27;;;0.60;;
73733;SDS011;62039;50.000;9.064;2022-07-05T12:51:10;0.90;;;0.70;;
73733;SDS011;62039;50.000;9.064;2022-07-05T12:53:44;0.63;;;0.57;;
73733;SDS011;62039;50.000;9.064;2022-07-05T12:56:12;1.35;;;0.60;;
73733;SDS011;62039;50.000;9.064;2022-07-05T12:58:47;0.90;;;0.77;;
73733;SDS011;62039;50.000;9.064;2022-07-05T13:01:21;0.43;;;0.43;;
73733;SDS011;62039;50.000;9.064;2022-07-05T13:03:56;0.50;;;0.45;;
73733;SDS011;62039;50.000;9.064;2022-07-05T13:06:23;1.02;;;0.50;;
73733;SDS011;62039;50.000;9.064;2022-07-05T13:09:05;1.05;;;0.50;;
73733;SDS011;62039;50.000;9.064;2022-07-05T13:11:32;1.20;;;0.70;;
73733;SDS011;62039;50.000;9.064;2022-07-05T13:13:59;1.23;;;0.60;;
73733;SDS011;62039;50.000;9.064;2022-07-05T13:16:25;2.33;;;0.88;;
73733;SDS011;62039;50.000;9.064;2022-07-05T13:18:52;1.73;;;0.70;;
73733;SDS011;62039;50.000;9.064;2022-07-05T13:21:20;0.60;;;0.60;;
73733;SDS011;62039;50.000;9.064;2022-07-05T13:23:49;0.63;;;0.60;;
73733;SDS011;62039;50.000;9.064;2022-07-05T13:26:15;0.88;;;0.60;;
73733;SDS011;62039;50.000;9.064;2022-07-05T13:28:42;1.38;;;0.80;;
73733;SDS011;62039;50.000;9.064;2022-07-05T13:31:08;0.95;;;0.50;;
73733;SDS011;62039;50.000;9.064;2022-07-05T13:33:35;1.45;;;0.50;;
73733;SDS011;62039;50.000;9.064;2022-07-05T13:36:03;0.60;;;0.60;;
73733;SDS011;62039;50.000;9.064;2022-07-05T13:38:31;1.35;;;0.80;;
73733;SDS011;62039;50.000;9.064;2022-07-05T13:40:58;0.88;;;0.70;;
73733;SDS011;62039;50.000;9.064;2022-07-05T13:43:24;0.85;;;0.80;;
73733;SDS011;62039;50.000;9.064;2022-07-05T13:45:51;1.42;;;0.80;;
73733;SDS011;62039;50.000;9.064;2022-07-05T13:48:18;0.80;;;0.70;;
73733;SDS011;62039;50.000;9.064;2022-07-05T13:50:44;1.13;;;0.60;;
73733;SDS011;62039;50.000;9.064;2022-07-05T13:53:11;0.60;;;0.60;;
73733;SDS011;62039;50.000;9.064;2022-07-05T13:55:39;1.48;;;0.60;;
73733;SDS011;62039;50.000;9.064;2022-07-05T13:58:05;1.38;;;0.65;;
73733;SDS011;62039;50.000;9.064;2022-07-05T14:00:32;1.80;;;0.88;;
73733;SDS011;62039;50.000;9.064;2022-07-05T14:02:59;1.17;;;0.70;;
73733;SDS011;62039;50.000;9.064;2022-07-05T14:05:31;0.88;;;0.60;;
73733;SDS011;62039;50.000;9.064;2022-07-05T14:07:57;2.13;;;0.68;;
73733;SDS011;62039;50.000;9.064;2022-07-05T14:10:24;1.48;;;0.80;;
73733;SDS011;62039;50.000;9.064;2022-07-05T14:12:52;1.77;;;0.73;;
73733;SDS011;62039;50.000;9.064;2022-07-05T14:15:19;0.70;;;0.60;;
73733;SDS011;62039;50.000;9.064;2022-07-05T14:17:45;1.10;;;0.98;;
73733;SDS011;62039;50.000;9.064;2022-07-05T14:20:12;0.85;;;0.60;;
73733;SDS011;62039;50.000;9.064;2022-07-05T14:22:39;1.10;;;0.80;;
73733;SDS011;62039;50.000;9.064;2022-07-05T14:25:05;1.95;;;0.80;;
73733;SDS011;62039;50.000;9.064;2022-07-05T14:27:32;1.10;;;0.80;;
73733;SDS011;62039;50.000;9.064;2022-07-05T14:30:00;0.98;;;0.90;;
73733;SDS011;62039;50.000;9.064;2022-07-05T14:32:27;1.05;;;0.82;;
73733;SDS011;62039;50.000;9.064;2022-07-05T14:34:54;0.98;;;0.70;;
73733;SDS011;62039;50.000;9.064;2022-07-05T14:37:20;0.77;;;0.70;;
73733;SDS011;62039;50.000;9.064;2022-07-05T14:39:47;1.55;;;0.60;;
73733;SDS011;62039;50.000;9.064;2022-07-05T14:42:14;0.60;;;0.55;;
73733;SDS011;62039;50.000;9.064;2022-07-05T14:44:40;0.80;;;0.70;;
73733;SDS011;62039;50.000;9.064;2022-07-05T14:47:08;1.80;;;0.70;;
73733;SDS011;62039;50.000;9.064;2022-07-05T14:49:35;0.77;;;0.70;;
73733;SDS011;62039;50.000;9.064;2022-07-05T14:52:02;0.88;;;0.77;;
73733;SDS011;62039;50.000;9.064;2022-07-05T14:54:29;0.90;;;0.80;;
73733;SDS011;62039;50.000;9.064;2022-07-05T14:56:56;0.83;;;0.77;;
73733;SDS011;62039;50.000;9.064;2022-07-05T14:59:25;1.37;;;0.80;;
73733;SDS011;62039;50.000;9.064;2022-07-05T15:01:52;1.35;;;0.88;;
73733;SDS011;62039;50.000;9.064;2022-07-05T15:04:20;0.80;;;0.77;;
73733;SDS011;62039;50.000;9.064;2022-07-05T15:06:46;1.03;;;0.80;;
73733;SDS011;62039;50.000;9.064;2022-07-05T15:09:13;0.83;;;0.80;;
73733;SDS011;62039;50.000;9.064;2022-07-05T15:11:40;1.20;;;0.70;;
73733;SDS011;62039;50.000;9.064;2022-07-05T15:14:06;1.20;;;0.70;;
73733;SDS011;62039;50.000;9.064;2022-07-05T15:16:33;0.60;;;0.60;;
73733;SDS011;62039;50.000;9.064;2022-07-05T15:18:59;0.80;;;0.77;;
73733;SDS011;62039;50.000;9.064;2022-07-05T15:21:28;0.90;;;0.80;;
73733;SDS011;62039;50.000;9.064;2022-07-05T15:23:55;0.60;;;0.60;;
73733;SDS011;62039;50.000;9.064;2022-07-05T15:26:41;1.00;;;0.90;;
73733;SDS011;62039;50.000;9.064;2022-07-05T15:29:08;1.37;;;0.77;;
73733;SDS011;62039;50.000;9.064;2022-07-05T15:31:36;0.80;;;0.80;;
73733;SDS011;62039;50.000;9.064;2022-07-05T15:34:04;0.73;;;0.67;;
73733;SDS011;62039;50.000;9.064;2022-07-05T15:36:32;1.27;;;0.70;;
73733;SDS011;62039;50.000;9.064;2022-07-05T15:38:59;1.03;;;0.60;;
73733;SDS011;62039;50.000;9.064;2022-07-05T15:41:27;1.33;;;0.80;;
73733;SDS011;62039;50.000;9.064;2022-07-05T15:43:55;1.23;;;0.90;;
73733;SDS011;62039;50.000;9.064;2022-07-05T15:46:21;0.70;;;0.70;;
73733;SDS011;62039;50.000;9.064;2022-07-05T15:48:48;0.83;;;0.70;;
73733;SDS011;62039;50.000;9.064;2022-07-05T15:51:15;1.73;;;0.90;;
73733;SDS011;62039;50.000;9.064;2022-07-05T15:53:43;1.13;;;0.90;;
73733;SDS011;62039;50.000;9.064;2022-07-05T15:56:10;1.70;;;0.60;;
73733;SDS011;62039;50.000;9.064;2022-07-05T15:58:37;0.90;;;0.60;;
73733;SDS011;62039;50.000;9.064;2022-07-05T16:01:04;0.90;;;0.63;;
73733;SDS011;62039;50.000;9.064;2022-07-05T16:03:31;0.83;;;0.70;;
73733;SDS011;62039;50.000;9.064;2022-07-05T16:05:58;0.63;;;0.63;;
73733;SDS011;62039;50.000;9.064;2022-07-05T16:08:26;0.90;;;0.80;;
73733;SDS011;62039;50.000;9.064;2022-07-05T16:10:54;1.00;;;0.90;;
73733;SDS011;62039;50.000;9.064;2022-07-05T16:13:21;1.17;;;0.93;;
73733;SDS011;62039;50.000;9.064;2022-07-05T16:15:49;8.00;;;7.20;;
73733;SDS011;62039;50.000;9.064;2022-07-05T16:18:15;6.37;;;5.67;;
73733;SDS011;62039;50.000;9.064;2022-07-05T16:20:42;3.90;;;3.10;;
73733;SDS011;62039;50.000;9.064;2022-07-05T16:23:09;1.63;;;1.37;;
73733;SDS011;62039;50.000;9.064;2022-07-05T16:25:36;1.50;;;1.40;;
73733;SDS011;62039;50.000;9.064;2022-07-05T16:28:04;1.50;;;1.40;;
73733;SDS011;62039;50.000;9.064;2022-07-05T16:30:30;1.40;;;1.23;;
73733;SDS011;62039;50.000;9.064;2022-07-05T16:32:57;1.30;;;1.10;;
73733;SDS011;62039;50.000;9.064;2022-07-05T16:35:24;1.60;;;1.20;;
73733;SDS011;62039;50.000;9.064;2022-07-05T16:37:50;1.00;;;1.00;;
73733;SDS011;62039;50.000;9.064;2022-07-05T16:40:17;1.30;;;1.10;;
73733;SDS011;62039;50.000;9.064;2022-07-05T16:42:44;1.10;;;0.97;;
73733;SDS011;62039;50.000;9.064;2022-07-05T16:45:12;1.30;;;0.93;;
73733;SDS011;62039;50.000;9.064;2022-07-05T16:47:39;1.33;;;1.00;;
73733;SDS011;62039;50.000;9.064;2022-07-05T16:50:06;1.00;;;0.90;;
73733;SDS011;62039;50.000;9.064;2022-07-05T16:52:33;1.17;;;0.90;;
73733;SDS011;62039;50.000;9.064;2022-07-05T16:55:00;1.20;;;1.10;;
73733;SDS011;62039;50.000;9.064;2022-07-05T16:57:26;1.43;;;1.23;;
73733;SDS011;62039;50.000;9.064;2022-07-05T16:59:53;1.27;;;0.87;;
73733;SDS011;62039;50.000;9.064;2022-07-05T17:02:21;1.00;;;0.90;;
73733;SDS011;62039;50.000;9.064;2022-07-05T17:04:47;0.90;;;0.90;;
73733;SDS011;62039;50.000;9.064;2022-07-05T17:07:14;1.17;;;0.80;;
73733;SDS011;62039;50.000;9.064;2022-07-05T17:09:41;1.53;;;0.90;;
73733;SDS011;62039;50.000;9.064;2022-07-05T17:12:07;1.57;;;0.87;;
73733;SDS011;62039;50.000;9.064;2022-07-05T17:14:34;0.90;;;0.77;;
73733;SDS011;62039;50.000;9.064;2022-07-05T17:17:01;1.00;;;0.80;;
73733;SDS011;62039;50.000;9.064;2022-07-05T17:19:29;1.13;;;0.80;;
73733;SDS011;62039;50.000;9.064;2022-07-05T17:21:56;1.47;;;0.90;;
73733;SDS011;62039;50.000;9.064;2022-07-05T17:24:22;1.10;;;0.80;;
73733;SDS011;62039;50.000;9.064;2022-07-05T17:26:49;1.00;;;0.90;;
73733;SDS011;62039;50.000;9.064;2022-07-05T17:29:16;1.43;;;0.80;;
73733;SDS011;62039;50.000;9.064;2022-07-05T17:31:42;0.63;;;0.63;;
73733;SDS011;62039;50.000;9.064;2022-07-05T17:34:09;1.10;;;0.80;;
73733;SDS011;62039;50.000;9.064;2022-07-05T17:36:37;1.00;;;0.80;;
73733;SDS011;62039;50.000;9.064;2022-07-05T17:39:04;1.00;;;0.90;;
73733;SDS011;62039;50.000;9.064;2022-07-05T17:41:31;1.00;;;0.90;;
73733;SDS011;62039;50.000;9.064;2022-07-05T17:43:57;0.90;;;0.80;;
73733;SDS011;62039;50.000;9.064;2022-07-05T17:46:24;2.33;;;1.03;;
73733;SDS011;62039;50.000;9.064;2022-07-05T17:48:52;0.80;;;0.80;;
73733;SDS011;62039;50.000;9.064;2022-07-05T17:51:19;2.17;;;1.10;;
73733;SDS011;62039;50.000;9.064;2022-07-05T17:54:07;1.50;;;1.00;;
73733;SDS011;62039;50.000;9.064;2022-07-05T17:56:34;1.30;;;1.00;;
73733;SDS011;62039;50.000;9.064;2022-07-05T17:59:01;1.83;;;1.00;;
73733;SDS011;62039;50.000;9.064;2022-07-05T18:01:27;2.17;;;0.90;;
73733;SDS011;62039;50.000;9.064;2022-07-05T18:03:54;1.07;;;0.90;;
73733;SDS011;62039;50.000;9.064;2022-07-05T18:06:21;3.47;;;0.90;;
73733;SDS011;62039;50.000;9.064;2022-07-05T18:08:47;1.37;;;0.90;;
73733;SDS011;62039;50.000;9.064;2022-07-05T18:11:15;1.60;;;1.00;;
73733;SDS011;62039;50.000;9.064;2022-07-05T18:13:42;0.90;;;0.87;;
73733;SDS011;62039;50.000;9.064;2022-07-05T18:16:09;1.00;;;0.90;;
73733;SDS011;62039;50.000;9.064;2022-07-05T18:18:35;1.10;;;0.87;;
73733;SDS011;62039;50.000;9.064;2022-07-05T18:21:02;0.80;;;0.80;;
73733;SDS011;62039;50.000;9.064;2022-07-05T18:23:29;0.80;;;0.80;;
73733;SDS011;62039;50.000;9.064;2022-07-05T18:25:56;0.80;;;0.80;;
73733;SDS011;62039;50.000;9.064;2022-07-05T18:28:23;1.03;;;0.93;;
73733;SDS011;62039;50.000;9.064;2022-07-05T18:30:50;1.77;;;0.90;;
73733;SDS011;62039;50.000;9.064;2022-07-05T18:33:17;1.63;;;0.80;;
73733;SDS011;62039;50.000;9.064;2022-07-05T18:35:44;1.67;;;0.90;;
73733;SDS011;62039;50.000;9.064;2022-07-05T18:38:10;1.20;;;0.97;;
73733;SDS011;62039;50.000;9.064;2022-07-05T18:40:37;1.73;;;0.90;;
73733;SDS011;62039;50.000;9.064;2022-07-05T18:43:04;1.50;;;1.00;;
73733;SDS011;62039;50.000;9.064;2022-07-05T18:45:32;0.90;;;0.90;;
73733;SDS011;62039;50.000;9.064;2022-07-05T18:47:58;1.97;;;0.80;;
73733;SDS011;62039;50.000;9.064;2022-07-05T18:50:25;0.90;;;0.90;;
73733;SDS011;62039;50.000;9.064;2022-07-05T18:52:51;1.20;;;0.77;;
73733;SDS011;62039;50.000;9.064;2022-07-05T18:55:18;1.33;;;0.90;;
73733;SDS011;62039;50.000;9.064;2022-07-05T18:57:45;1.00;;;0.90;;
73733;SDS011;62039;50.000;9.064;2022-07-05T19:00:12;1.20;;;0.80;;
73733;SDS011;62039;50.000;9.064;2022-07-05T19:02:40;3.77;;;0.77;;
73733;SDS011;62039;50.000;9.064;2022-07-05T19:05:07;0.97;;;0.83;;
73733;SDS011;62039;50.000;9.064;2022-07-05T19:07:34;2.07;;;0.90;;
73733;SDS011;62039;50.000;9.064;2022-07-05T19:10:01;1.30;;;1.13;;
73733;SDS011;62039;50.000;9.064;2022-07-05T19:12:27;1.63;;;0.83;;
73733;SDS011;62039;50.000;9.064;2022-07-05T19:14:54;1.03;;;0.87;;
73733;SDS011;62039;50.000;9.064;2022-07-05T19:17:25;2.27;;;0.80;;
73733;SDS011;62039;50.000;9.064;2022-07-05T19:19:53;1.10;;;1.00;;
73733;SDS011;62039;50.000;9.064;2022-07-05T19:22:20;1.43;;;0.83;;
73733;SDS011;62039;50.000;9.064;2022-07-05T19:24:46;1.17;;;1.07;;
73733;SDS011;62039;50.000;9.064;2022-07-05T19:27:13;1.70;;;0.90;;
73733;SDS011;62039;50.000;9.064;2022-07-05T19:29:40;1.30;;;0.90;;
73733;SDS011;62039;50.000;9.064;2022-07-05T19:32:07;1.07;;;1.00;;
73733;SDS011;62039;50.000;9.064;2022-07-05T19:34:34;1.20;;;1.10;;
73733;SDS011;62039;50.000;9.064;2022-07-05T19:37:03;2.67;;;0.93;;
73733;SDS011;62039;50.000;9.064;2022-07-05T19:39:30;2.07;;;0.87;;
73733;SDS011;62039;50.000;9.064;2022-07-05T19:41:57;0.90;;;0.77;;
73733;SDS011;62039;50.000;9.064;2022-07-05T19:44:23;1.23;;;0.97;;
73733;SDS011;62039;50.000;9.064;2022-07-05T19:46:50;2.43;;;0.97;;
73733;SDS011;62039;50.000;9.064;2022-07-05T19:49:16;4.03;;;1.40;;
73733;SDS011;62039;50.000;9.064;2022-07-05T19:51:43;1.83;;;1.10;;
73733;SDS011;62039;50.000;9.064;2022-07-05T19:54:11;2.70;;;1.10;;
73733;SDS011;62039;50.000;9.064;2022-07-05T19:56:38;1.73;;;0.70;;
73733;SDS011;62039;50.000;9.064;2022-07-05T19:59:05;1.70;;;1.00;;
73733;SDS011;62039;50.000;9.064;2022-07-05T20:01:31;0.97;;;0.90;;
73733;SDS011;62039;50.000;9.064;2022-07-05T20:03:59;0.80;;;0.80;;
73733;SDS011;62039;50.000;9.064;2022-07-05T20:06:31;2.60;;;1.03;;
73733;SDS011;62039;50.000;9.064;2022-07-05T20:08:58;1.30;;;0.90;;
73733;SDS011;62039;50.000;9.064;2022-07-05T20:11:26;1.27;;;0.93;;
73733;SDS011;62039;50.000;9.064;2022-07-05T20:14:12;1.00;;;0.90;;
73733;SDS011;62039;50.000;9.064;2022-07-05T20:16:39;1.10;;;0.90;;
73733;SDS011;62039;50.000;9.064;2022-07-05T20:19:06;1.60;;;1.00;;
73733;SDS011;62039;50.000;9.064;2022-07-05T20:21:32;0.93;;;0.80;;
73733;SDS011;62039;50.000;9.064;2022-07-05T20:23:59;1.10;;;0.90;;
73733;SDS011;62039;50.000;9.064;2022-07-05T20:26:27;1.00;;;0.90;;
73733;SDS011;62039;50.000;9.064;2022-07-05T20:28:53;0.90;;;0.90;;
73733;SDS011;62039;50.000;9.064;2022-07-05T20:31:20;2.00;;;1.00;;
73733;SDS011;62039;50.000;9.064;2022-07-05T20:33:47;0.80;;;0.80;;
73733;SDS011;62039;50.000;9.064;2022-07-05T20:36:13;2.07;;;0.90;;
73733;SDS011;62039;50.000;9.064;2022-07-05T20:38:40;0.90;;;0.90;;
73733;SDS011;62039;50.000;9.064;2022-07-05T20:41:07;0.97;;;0.77;;
73733;SDS011;62039;50.000;9.064;2022-07-05T20:43:35;1.37;;;0.80;;
73733;SDS011;62039;50.000;9.064;2022-07-05T20:46:01;0.80;;;0.80;;
73733;SDS011;62039;50.000;9.064;2022-07-05T20:48:28;4.70;;;0.80;;
73733;SDS011;62039;50.000;9.064;2022-07-05T20:50:55;0.80;;;0.70;;
73733;SDS011;62039;50.000;9.064;2022-07-05T20:53:21;0.80;;;0.77;;
73733;SDS011;62039;50.000;9.064;2022-07-05T20:55:48;0.90;;;0.90;;
73733;SDS011;62039;50.000;9.064;2022-07-05T20:58:15;2.40;;;0.90;;
73733;SDS011;62039;50.000;9.064;2022-07-05T21:00:43;2.17;;;1.00;;
73733;SDS011;62039;50.000;9.064;2022-07-05T21:03:09;1.70;;;0.83;;
73733;SDS011;62039;50.000;9.064;2022-07-05T21:05:36;0.80;;;0.80;;
73733;SDS011;62039;50.000;9.064;2022-07-05T21:08:03;0.87;;;0.87;;
73733;SDS011;62039;50.000;9.064;2022-07-05T21:10:30;0.87;;;0.87;;
73733;SDS011;62039;50.000;9.064;2022-07-05T21:12:56;1.23;;;1.00;;
73733;SDS011;62039;50.000;9.064;2022-07-05T21:15:23;0.93;;;0.90;;
73733;SDS011;62039;50.000;9.064;2022-07-05T21:17:51;1.00;;;0.90;;
73733;SDS011;62039;50.000;9.064;2022-07-05T21:20:18;0.90;;;0.90;;
73733;SDS011;62039;50.000;9.064;2022-07-05T21:22:44;1.00;;;0.90;;
73733;SDS011;62039;50.000;9.064;2022-07-05T21:25:12;1.97;;;0.80;;
73733;SDS011;62039;50.000;9.064;2022-07-05T21:27:38;0.80;;;0.77;;
73733;SDS011;62039;50.000;9.064;2022-07-05T21:30:05;1.00;;;1.00;;
73733;SDS011;62039;50.000;9.064;2022-07-05T21:32:32;0.90;;;0.90;;
73733;SDS011;62039;50.000;9.064;2022-07-05T21:35:00;1.90;;;0.93;;
73733;SDS011;62039;50.000;9.064;2022-07-05T21:37:27;1.27;;;0.90;;
73733;SDS011;62039;50.000;9.064;2022-07-05T21:39:54;1.20;;;1.00;;
73733;SDS011;62039;50.000;9.064;2022-07-05T21:42:20;0.77;;;0.77;;
73733;SDS011;62039;50.000;9.064;2022-07-05T21:44:47;1.13;;;0.80;;
73733;SDS011;62039;50.000;9.064;2022-07-05T21:47:14;0.90;;;0.80;;
73733;SDS011;62039;50.000;9.064;2022-07-05T21:49:40;1.73;;;0.90;;
73733;SDS011;62039;50.000;9.064;2022-07-05T21:52:08;2.60;;;1.10;;
73733;SDS011;62039;50.000;9.064;2022-07-05T21:54:35;2.17;;;1.00;;
73733;SDS011;62039;50.000;9.064;2022-07-05T21:57:01;0.93;;;0.83;;
73733;SDS011;62039;50.000;9.064;2022-07-05T21:59:28;1.13;;;1.00;;
73733;SDS011;62039;50.000;9.064;2022-07-05T22:01:55;0.80;;;0.80;;
73733;SDS011;62039;50.000;9.064;2022-07-05T22:04:21;0.83;;;0.83;;
73733;SDS011;62039;50.000;9.064;2022-07-05T22:06:48;0.90;;;0.80;;
73733;SDS011;62039;50.000;9.064;2022-07-05T22:09:16;0.83;;;0.83;;
73733;SDS011;62039;50.000;9.064;2022-07-05T22:11:43;0.80;;;0.80;;
73733;SDS011;62039;50.000;9.064;2022-07-05T22:14:10;1.60;;;0.83;;
73733;SDS011;62039;50.000;9.064;2022-07-05T22:16:36;1.27;;;0.90;;
73733;SDS011;62039;50.000;9.064;2022-07-05T22:19:03;1.50;;;1.03;;
73733;SDS011;62039;50.000;9.064;2022-07-05T22:21:30;0.97;;;0.93;;
73733;SDS011;62039;50.000;9.064;2022-07-05T22:23:56;1.90;;;0.87;;
73733;SDS011;62039;50.000;9.064;2022-07-05T22:26:24;0.80;;;0.80;;
73733;SDS011;62039;50.000;9.064;2022-07-05T22:28:58;0.80;;;0.80;;
73733;SDS011;62039;50.000;9.064;2022-07-05T22:31:25;0.97;;;0.83;;
73733;SDS011;62039;50.000;9.064;2022-07-05T22:33:51;0.90;;;0.90;;
73733;SDS011;62039;50.000;9.064;2022-07-05T22:36:18;1.13;;;1.03;;
73733;SDS011;62039;50.000;9.064;2022-07-05T22:38:44;1.17;;;0.90;;
73733;SDS011;62039;50.000;9.064;2022-07-05T22:41:11;0.87;;;0.80;;
73733;SDS011;62039;50.000;9.064;2022-07-05T22:43:39;0.80;;;0.80;;
73733;SDS011;62039;50.000;9.064;2022-07-05T22:46:06;1.53;;;0.80;;
73733;SDS011;62039;50.000;9.064;2022-07-05T22:48:34;0.80;;;0.80;;
73733;SDS011;62039;50.000;9.064;2022-07-05T22:51:00;1.00;;;0.90;;
73733;SDS011;62039;50.000;9.064;2022-07-05T22:53:27;1.90;;;0.80;;
73733;SDS011;62039;50.000;9.064;2022-07-05T22:55:54;2.27;;;0.90;;
73733;SDS011;62039;50.000;9.064;2022-07-05T22:58:20;2.50;;;0.80;;
73733;SDS011;62039;50.000;9.064;2022-07-05T23:00:49;1.27;;;0.90;;
73733;SDS011;62039;50.000;9.064;2022-07-05T23:03:15;0.97;;;0.87;;
73733;SDS011;62039;50.000;9.064;2022-07-05T23:05:44;0.80;;;0.80;;
73733;SDS011;62039;50.000;9.064;2022-07-05T23:08:10;0.97;;;0.87;;
73733;SDS011;62039;50.000;9.064;2022-07-05T23:10:37;0.70;;;0.70;;
73733;SDS011;62039;50.000;9.064;2022-07-05T23:13:04;0.83;;;0.80;;
73733;SDS011;62039;50.000;9.064;2022-07-05T23:15:30;1.20;;;0.87;;
73733;SDS011;62039;50.000;9.064;2022-07-05T23:17:58;2.17;;;0.87;;
73733;SDS011;62039;50.000;9.064;2022-07-05T23:20:25;1.47;;;0.87;;
73733;SDS011;62039;50.000;9.064;2022-07-05T23:22:52;1.53;;;0.90;;